Time;durP1;ratioP1;P1;durP2;ratioP2;P2;SDS_P1;SDS_P2;PMS_P1;PMS_P2;Temp;Humidity;BMP_temperature;BMP_pressure;BME280_temperature;BME280_humidity;BME280_pressure;Samples;Min_cycle;Max_cycle;Signal;HPM_P1;HPM_P2
2021/10/05 00:00:08;;;;;;;17.55;11.43;;;;;;;15.76;72.57;100492.50;5133589;27;20090;-78
2021/10/05 00:02:37;;;;;;;19.08;11.70;;;;;;;15.81;72.37;100488.47;5133366;27;20046;-78
2021/10/05 00:05:08;;;;;;;17.95;11.90;;;;;;;15.85;72.26;100492.63;5137383;27;20552;-75
2021/10/05 00:07:36;;;;;;;19.15;11.55;;;;;;;15.80;72.28;100488.59;5137295;27;20100;-74
2021/10/05 00:10:06;;;;;;;20.23;12.48;;;;;;;15.78;72.19;100490.53;5137686;27;20115;-75
2021/10/05 00:12:35;;;;;;;17.95;12.13;;;;;;;15.78;72.29;100487.84;5137349;27;20043;-75
2021/10/05 00:15:05;;;;;;;18.83;12.60;;;;;;;15.64;72.77;100483.56;5137134;27;20035;-73
2021/10/05 00:17:33;;;;;;;20.42;12.93;;;;;;;15.70;72.56;100488.44;5136941;27;20043;-73
2021/10/05 00:20:05;;;;;;;17.55;12.00;;;;;;;15.61;73.04;100481.09;5136450;27;20043;-74
2021/10/05 00:22:34;;;;;;;19.38;13.35;;;;;;;15.59;73.23;100491.94;5136836;27;20039;-74
2021/10/05 00:25:02;;;;;;;18.80;12.23;;;;;;;15.62;73.05;100496.25;5137270;27;20384;-74
2021/10/05 00:27:31;;;;;;;19.95;12.32;;;;;;;15.65;72.57;100496.03;5136760;27;20426;-75
2021/10/05 00:29:59;;;;;;;17.73;12.13;;;;;;;15.68;72.46;100490.41;5136978;27;20043;-73
2021/10/05 00:32:27;;;;;;;20.17;11.88;;;;;;;15.65;72.71;100490.66;5136921;27;20070;-73
2021/10/05 00:34:56;;;;;;;17.67;12.40;;;;;;;15.65;72.40;100496.03;5136809;27;20042;-74
2021/10/05 00:37:25;;;;;;;23.30;12.90;;;;;;;15.66;72.44;100495.06;5136722;27;20480;-80
2021/10/05 00:39:53;;;;;;;24.00;13.63;;;;;;;15.74;72.10;100495.31;5136825;27;20076;-75
2021/10/05 00:42:22;;;;;;;18.33;12.88;;;;;;;15.77;71.89;100489.69;5136565;27;20053;-75
2021/10/05 00:44:51;;;;;;;18.88;13.18;;;;;;;15.73;71.78;100489.09;5136732;27;20035;-74
2021/10/05 00:47:20;;;;;;;21.42;14.23;;;;;;;15.61;72.45;100489.16;5136684;27;20092;-74
2021/10/05 00:49:50;;;;;;;17.42;12.70;;;;;;;15.64;72.37;100494.31;5136407;27;20043;-75
2021/10/05 00:52:20;;;;;;;21.40;13.45;;;;;;;15.56;72.70;100494.00;5136354;27;20047;-74
2021/10/05 00:54:50;;;;;;;24.77;13.43;;;;;;;15.52;72.89;100489.84;5136085;27;20047;-73
2021/10/05 00:57:18;;;;;;;20.00;13.00;;;;;;;15.50;72.96;100492.63;5136532;27;20395;-73
2021/10/05 00:59:48;;;;;;;20.45;12.95;;;;;;;15.51;72.92;100486.28;5136454;27;20464;-75
2021/10/05 01:02:16;;;;;;;25.38;12.90;;;;;;;15.47;72.91;100487.50;5136394;27;20046;-74
2021/10/05 01:04:45;;;;;;;19.55;12.90;;;;;;;15.34;73.87;100492.09;5134673;27;20047;-74
2021/10/05 01:07:15;;;;;;;18.52;11.68;;;;;;;15.27;74.20;100486.34;5136127;27;20047;-75
2021/10/05 01:09:44;;;;;;;18.25;12.40;;;;;;;15.24;74.24;100486.56;5136142;27;20035;-74
2021/10/05 01:12:15;;;;;;;18.98;11.38;;;;;;;15.13;74.93;100489.19;5136271;27;20050;-74
2021/10/05 01:14:43;;;;;;;23.00;12.02;;;;;;;15.18;74.53;100503.16;5135719;27;20125;-74
2021/10/05 01:17:12;;;;;;;16.98;11.82;;;;;;;15.23;74.40;100492.91;5135987;27;20035;-74
2021/10/05 01:19:41;;;;;;;16.60;11.35;;;;;;;15.22;74.40;100491.19;5135794;27;20046;-74
2021/10/05 01:22:11;;;;;;;20.55;11.98;;;;;;;15.21;74.59;100494.88;5136305;27;20047;-74
2021/10/05 01:24:40;;;;;;;17.20;11.80;;;;;;;15.25;74.48;100493.69;5135735;27;20035;-74
2021/10/05 01:27:08;;;;;;;24.88;14.48;;;;;;;15.07;75.49;100489.69;5136001;27;20046;-73
2021/10/05 01:29:36;;;;;;;21.70;14.50;;;;;;;15.08;75.23;100486.03;5135563;27;20047;-73
2021/10/05 01:32:06;;;;;;;19.92;12.98;;;;;;;15.04;75.27;100482.69;5135702;27;20047;-74
2021/10/05 01:34:35;;;;;;;18.75;12.20;;;;;;;15.06;75.13;100470.03;5135726;27;20038;-74
2021/10/05 01:37:03;;;;;;;20.15;11.20;;;;;;;15.06;75.14;100474.53;5135743;27;20045;-74
2021/10/05 01:39:36;;;;;;;16.50;10.68;;;;;;;14.91;75.47;100481.06;5135390;27;20046;-75
2021/10/05 01:42:07;;;;;;;16.02;10.07;;;;;;;15.03;74.83;100474.75;5135775;27;20044;-76
2021/10/05 01:44:36;;;;;;;16.50;10.52;;;;;;;14.97;75.32;100472.53;5135372;27;20039;-76
2021/10/05 01:47:06;;;;;;;20.42;10.40;;;;;;;14.89;75.37;100468.59;5135756;27;20045;-75
2021/10/05 01:49:36;;;;;;;16.25;10.93;;;;;;;14.80;75.68;100461.22;5135241;27;20476;-74
2021/10/05 01:52:06;;;;;;;18.38;10.73;;;;;;;14.69;76.05;100477.28;5135607;27;20078;-74
2021/10/05 01:54:35;;;;;;;20.10;10.95;;;;;;;14.65;76.42;100477.59;5134983;27;20449;-74
2021/10/05 01:57:04;;;;;;;18.35;10.50;;;;;;;14.54;76.79;100483.75;5135150;27;20050;-74
2021/10/05 01:59:33;;;;;;;17.13;11.68;;;;;;;14.53;77.15;100469.47;5135170;27;20049;-75
2021/10/05 02:02:03;;;;;;;18.10;11.15;;;;;;;14.70;76.11;100470.06;5135629;27;20047;-74
2021/10/05 02:04:31;;;;;;;20.75;11.85;;;;;;;14.59;76.53;100471.72;5134788;27;20039;-74
2021/10/05 02:07:01;;;;;;;22.70;11.38;;;;;;;14.70;76.06;100470.94;5135124;27;20054;-74
2021/10/05 02:09:29;;;;;;;18.10;11.85;;;;;;;14.78;75.70;100462.31;5135271;27;20046;-79
2021/10/05 02:11:59;;;;;;;18.45;10.25;;;;;;;14.77;75.54;100458.78;5135372;27;20050;-74
2021/10/05 02:14:27;;;;;;;22.10;10.57;;;;;;;14.73;76.04;100467.16;5135235;27;20046;-74
2021/10/05 02:16:55;;;;;;;17.75;10.90;;;;;;;14.79;75.28;100459.50;5134917;27;20476;-74
2021/10/05 02:19:24;;;;;;;18.42;10.73;;;;;;;14.77;75.44;100463.28;5135426;27;20040;-74
2021/10/05 02:21:52;;;;;;;14.35;9.55;;;;;;;14.67;75.51;100465.81;5133532;27;20058;-75
2021/10/05 02:27:07;;;;;;;19.50;9.73;;;;;;;14.57;75.57;100460.25;5134387;27;20126;-75
2021/10/05 02:29:36;;;;;;;17.85;9.75;;;;;;;14.52;75.59;100458.88;5134496;27;20466;-75
2021/10/05 02:32:05;;;;;;;20.48;10.77;;;;;;;14.44;76.15;100464.75;5135092;27;20051;-75
2021/10/05 02:34:35;;;;;;;20.58;9.98;;;;;;;14.40;76.11;100462.41;5134478;27;20035;-73
2021/10/05 02:37:04;;;;;;;18.63;10.27;;;;;;;14.35;76.36;100469.94;5134634;27;20066;-73
2021/10/05 02:39:33;;;;;;;17.25;10.13;;;;;;;14.24;76.88;100473.38;5134291;27;20429;-75
2021/10/05 02:42:01;;;;;;;15.68;9.70;;;;;;;14.23;76.47;100472.53;5134534;27;20492;-74
2021/10/05 02:44:31;;;;;;;16.98;9.63;;;;;;;14.25;76.23;100470.59;5134595;27;20045;-75
2021/10/05 02:46:59;;;;;;;15.68;9.43;;;;;;;14.33;75.54;100473.59;5134305;27;20039;-75
2021/10/05 02:49:27;;;;;;;17.83;10.60;;;;;;;14.32;75.36;100477.25;5134401;27;20045;-74
2021/10/05 02:51:56;;;;;;;17.33;10.10;;;;;;;14.22;75.81;100481.56;5134123;27;20092;-74
2021/10/05 02:54:24;;;;;;;14.93;9.27;;;;;;;14.11;76.49;100481.47;5134224;27;20043;-74
2021/10/05 02:56:53;;;;;;;19.10;9.38;;;;;;;14.08;76.14;100478.13;5133892;27;20043;-73
2021/10/05 02:59:21;;;;;;;16.95;10.32;;;;;;;14.12;75.97;100472.44;5134187;27;20070;-75
2021/10/05 03:01:53;;;;;;;17.27;11.25;;;;;;;14.05;76.38;100484.56;5133724;27;20062;-75
2021/10/05 03:04:21;;;;;;;18.25;10.65;;;;;;;13.93;77.13;100478.25;5134443;27;20483;-74
2021/10/05 03:06:49;;;;;;;18.33;11.60;;;;;;;13.98;77.09;100478.78;5133941;27;20047;-75
2021/10/05 03:09:18;;;;;;;20.08;12.93;;;;;;;13.95;77.21;100472.78;5134257;27;20035;-76
2021/10/05 03:11:46;;;;;;;20.75;11.32;;;;;;;13.96;77.12;100474.50;5133721;27;20044;-77
2021/10/05 03:14:15;;;;;;;20.90;11.05;;;;;;;14.03;76.55;100471.28;5133956;27;20047;-77
2021/10/05 03:16:43;;;;;;;18.90;11.23;;;;;;;14.02;76.49;100463.34;5133743;27;20051;-77
2021/10/05 03:19:13;;;;;;;20.02;11.13;;;;;;;13.97;76.74;100457.44;5133963;27;20047;-76
2021/10/05 03:21:42;;;;;;;17.25;11.15;;;;;;;13.96;76.76;100455.72;5133708;27;20096;-76
2021/10/05 03:24:10;;;;;;;19.83;11.25;;;;;;;13.94;76.87;100450.47;5133760;27;20054;-75
2021/10/05 03:26:38;;;;;;;20.80;11.10;;;;;;;13.82;77.32;100455.84;5133270;27;20046;-75
2021/10/05 03:29:10;;;;;;;21.02;11.70;;;;;;;13.81;77.06;100459.50;5133986;27;20046;-75
2021/10/05 03:31:38;;;;;;;20.90;11.30;;;;;;;13.67;77.59;100457.78;5133635;27;20051;-76
2021/10/05 03:34:07;;;;;;;19.10;11.05;;;;;;;13.74;77.30;100461.75;5133966;27;20480;-75
2021/10/05 03:36:36;;;;;;;20.75;10.88;;;;;;;13.71;77.36;100456.59;5133503;27;20054;-79
2021/10/05 03:39:04;;;;;;;16.67;10.50;;;;;;;13.74;76.95;100449.19;5136742;27;20138;-75
2021/10/05 03:41:33;;;;;;;21.90;11.20;;;;;;;13.60;77.75;100451.09;5137888;27;20406;-75
2021/10/05 03:44:01;;;;;;;22.45;11.05;;;;;;;13.54;78.22;100447.06;5138007;27;20048;-74
2021/10/05 03:46:29;;;;;;;19.05;10.60;;;;;;;13.57;78.03;100445.97;5137922;27;20042;-75
2021/10/05 03:48:57;;;;;;;18.98;10.48;;;;;;;13.55;78.24;100443.41;5137781;27;20039;-75
2021/10/05 03:51:25;;;;;;;18.70;10.82;;;;;;;13.43;78.53;100444.25;5137675;27;20047;-74
2021/10/05 03:53:55;;;;;;;18.98;11.02;;;;;;;13.35;79.24;100447.47;5137253;27;20040;-74
2021/10/05 03:56:23;;;;;;;16.83;10.32;;;;;;;13.37;78.97;100450.03;5137535;27;20051;-74
2021/10/05 03:58:51;;;;;;;16.52;10.38;;;;;;;13.33;79.28;100453.91;5137579;27;20084;-74
2021/10/05 04:01:19;;;;;;;13.75;10.18;;;;;;;13.22;79.70;100462.66;5136439;27;20039;-74
2021/10/05 04:03:48;;;;;;;17.35;10.63;;;;;;;13.24;79.70;100462.56;5137249;27;20465;-74
2021/10/05 04:06:16;;;;;;;16.95;10.30;;;;;;;13.24;79.82;100468.78;5137335;27;20043;-74
2021/10/05 04:08:47;;;;;;;20.65;10.77;;;;;;;13.25;79.57;100464.28;5137173;27;20035;-74
2021/10/05 04:11:16;;;;;;;19.20;10.35;;;;;;;13.17;80.23;100465.59;5137475;27;20495;-74
2021/10/05 04:13:45;;;;;;;19.15;10.50;;;;;;;13.14;80.38;100463.16;5137076;27;20039;-74
2021/10/05 04:16:13;;;;;;;22.13;10.40;;;;;;;13.20;80.37;100461.03;5137255;27;20464;-74
2021/10/05 04:18:41;;;;;;;20.52;11.20;;;;;;;13.22;80.33;100456.41;5136701;27;20047;-74
2021/10/05 04:21:10;;;;;;;23.02;11.07;;;;;;;13.18;80.05;100445.88;5137172;27;20069;-73
2021/10/05 04:23:38;;;;;;;16.92;10.73;;;;;;;13.17;80.09;100454.03;5137333;27;20051;-74
2021/10/05 04:26:06;;;;;;;16.77;10.25;;;;;;;13.14;79.80;100444.41;5137112;27;20502;-73
2021/10/05 04:28:36;;;;;;;18.20;10.48;;;;;;;13.15;79.82;100456.81;5137186;27;20076;-73
2021/10/05 04:31:04;;;;;;;14.48;9.65;;;;;;;13.08;80.10;100460.88;5136925;27;20502;-73
2021/10/05 04:33:33;;;;;;;20.75;10.55;;;;;;;13.04;79.75;100456.69;5137151;27;20121;-73
2021/10/05 04:36:01;;;;;;;14.55;9.65;;;;;;;13.07;79.20;100459.16;5136611;27;20393;-73
2021/10/05 04:38:30;;;;;;;18.75;10.75;;;;;;;13.01;79.77;100461.38;5136951;27;20039;-73
2021/10/05 04:40:58;;;;;;;18.42;9.77;;;;;;;13.14;79.08;100467.66;5136610;27;20441;-74
2021/10/05 04:43:27;;;;;;;21.63;10.43;;;;;;;13.10;79.18;100464.28;5136615;27;20039;-74
2021/10/05 04:45:57;;;;;;;17.90;9.73;;;;;;;13.06;79.57;100462.78;5136110;27;20039;-74
2021/10/05 04:48:25;;;;;;;17.98;10.05;;;;;;;12.93;79.78;100461.88;5136489;27;20422;-74
2021/10/05 04:50:55;;;;;;;15.93;9.38;;;;;;;12.98;79.26;100464.28;5136489;27;20043;-73
2021/10/05 04:53:26;;;;;;;16.45;9.68;;;;;;;12.92;79.72;100470.00;5136735;27;20542;-74
2021/10/05 04:55:54;;;;;;;18.88;10.60;;;;;;;12.87;79.86;100473.00;5136441;27;20043;-75
2021/10/05 04:58:22;;;;;;;19.60;10.45;;;;;;;12.85;79.94;100469.59;5136172;27;20456;-74
2021/10/05 05:00:51;;;;;;;18.90;10.60;;;;;;;12.93;79.42;100472.59;5136275;27;20050;-71
2021/10/05 05:03:22;;;;;;;16.05;9.30;;;;;;;13.01;78.60;100478.28;5136035;27;20047;-71
2021/10/05 05:05:50;;;;;;;19.40;10.45;;;;;;;13.14;77.98;100475.69;5136056;27;20127;-71
2021/10/05 05:08:18;;;;;;;17.17;9.90;;;;;;;13.12;77.84;100475.78;5136105;27;20088;-73
2021/10/05 05:10:47;;;;;;;20.17;10.27;;;;;;;13.08;77.77;100468.91;5135522;27;20488;-72
2021/10/05 05:13:15;;;;;;;16.73;9.55;;;;;;;13.08;76.89;100481.44;5135972;27;20402;-72
2021/10/05 05:15:44;;;;;;;18.02;9.82;;;;;;;13.07;77.49;100485.06;5135954;27;20069;-73
2021/10/05 05:18:12;;;;;;;16.58;10.32;;;;;;;13.08;77.36;100479.63;5135836;27;20095;-72
2021/10/05 05:20:42;;;;;;;17.13;9.98;;;;;;;13.11;76.93;100479.41;5135835;27;20043;-73
2021/10/05 05:23:10;;;;;;;18.25;10.60;;;;;;;13.12;76.78;100480.25;5168878;27;20050;-72
2021/10/05 05:25:38;;;;;;;16.23;9.48;;;;;;;13.22;75.93;100489.44;5135892;27;20118;-70
2021/10/05 05:28:08;;;;;;;17.77;10.23;;;;;;;13.12;76.34;100488.28;5135491;27;20051;-71
2021/10/05 05:30:36;;;;;;;16.55;10.13;;;;;;;13.05;76.51;100495.91;5135485;27;20049;-71
2021/10/05 05:33:05;;;;;;;19.38;10.38;;;;;;;13.01;76.68;100499.72;5135116;27;20039;-71
2021/10/05 05:35:35;;;;;;;17.40;10.15;;;;;;;13.08;76.50;100498.34;5135407;27;20067;-71
2021/10/05 05:38:05;;;;;;;18.98;10.30;;;;;;;13.12;75.82;100505.25;5135259;27;20501;-71
2021/10/05 05:40:33;;;;;;;17.58;10.13;;;;;;;13.24;75.74;100497.38;5135358;27;20074;-71
2021/10/05 05:43:01;;;;;;;19.58;10.82;;;;;;;13.39;74.63;100497.19;5133847;27;20058;-71
2021/10/05 05:45:33;;;;;;;18.13;10.23;;;;;;;13.47;74.60;100499.34;5135183;27;20050;-71
2021/10/05 05:48:02;;;;;;;17.17;9.77;;;;;;;13.55;73.65;100502.38;5135153;27;20063;-70
2021/10/05 05:50:30;;;;;;;21.20;10.43;;;;;;;13.69;73.19;100491.53;5133213;27;20150;-71
2021/10/05 05:52:58;;;;;;;15.68;9.15;;;;;;;13.75;72.29;100488.44;5134928;27;20039;-69
2021/10/05 05:55:28;;;;;;;14.93;9.57;;;;;;;13.50;73.42;100492.91;5134911;27;20409;-69
2021/10/05 05:57:57;;;;;;;16.75;9.68;;;;;;;13.62;72.35;100501.00;5134679;27;20465;-69
2021/10/05 06:00:25;;;;;;;17.88;11.05;;;;;;;13.54;73.05;100506.00;5134132;27;20035;-69
2021/10/05 06:02:54;;;;;;;17.92;10.10;;;;;;;13.59;72.74;100495.81;5134684;27;20047;-70
2021/10/05 06:05:25;;;;;;;18.65;10.27;;;;;;;13.70;72.51;100503.13;5135190;27;20104;-69
2021/10/05 06:07:53;;;;;;;14.35;9.82;;;;;;;13.80;71.57;100506.00;5134690;27;20047;-69
2021/10/05 06:10:22;;;;;;;17.90;10.10;;;;;;;13.91;71.27;100504.31;5168216;27;20140;-70
2021/10/05 06:12:53;;;;;;;18.60;10.30;;;;;;;13.94;70.75;100496.06;5134717;27;20054;-70
2021/10/05 06:15:23;;;;;;;17.25;9.85;;;;;;;13.96;70.53;100504.00;5134832;27;20396;-71
2021/10/05 06:17:51;;;;;;;17.42;9.88;;;;;;;13.98;71.36;100520.81;5134694;27;20097;-70
2021/10/05 06:20:22;;;;;;;17.05;9.82;;;;;;;14.02;70.58;100522.34;5134742;27;20035;-70
2021/10/05 06:22:51;;;;;;;15.27;10.35;;;;;;;14.13;69.95;100517.06;5134355;27;20051;-71
2021/10/05 06:25:22;;;;;;;16.83;10.32;;;;;;;14.27;69.35;100524.13;5134631;27;20049;-70
2021/10/05 06:27:53;;;;;;;14.82;9.48;;;;;;;14.35;69.36;100520.91;5134669;27;20114;-70
2021/10/05 06:30:21;;;;;;;13.68;10.07;;;;;;;14.33;68.84;100527.25;5134538;27;20055;-69
2021/10/05 06:32:54;;;;;;;17.38;10.10;;;;;;;14.42;69.44;100524.88;5134608;27;20047;-69
2021/10/05 06:35:25;;;;;;;15.75;10.43;;;;;;;14.41;69.06;100531.22;5134871;27;20540;-69
2021/10/05 06:37:55;;;;;;;16.30;9.98;;;;;;;14.54;68.92;100519.50;5134536;27;20503;-69
2021/10/05 06:40:23;;;;;;;15.15;9.63;;;;;;;14.69;69.19;100530.13;5135753;27;20117;-70
2021/10/05 06:42:53;;;;;;;18.83;10.18;;;;;;;14.65;68.62;100520.56;5134015;27;20031;-70
2021/10/05 06:45:22;;;;;;;15.27;9.50;;;;;;;14.68;67.87;100523.03;5134661;27;20040;-71
2021/10/05 06:47:50;;;;;;;20.15;10.85;;;;;;;14.72;68.68;100517.31;5134394;27;20118;-72
2021/10/05 06:50:19;;;;;;;17.05;10.38;;;;;;;14.86;67.47;100527.91;5134273;27;20476;-69
2021/10/05 06:52:48;;;;;;;20.33;11.27;;;;;;;14.90;66.94;100531.22;5133944;27;20035;-70
2021/10/05 06:55:16;;;;;;;17.15;10.60;;;;;;;14.98;66.90;100528.84;5133764;27;20050;-69
2021/10/05 06:57:45;;;;;;;16.17;10.80;;;;;;;15.05;66.19;100522.00;5133833;27;20035;-69
2021/10/05 07:00:16;;;;;;;16.50;9.50;;;;;;;15.30;64.75;100510.28;5133649;27;20047;-70
2021/10/05 07:02:46;;;;;;;18.17;9.85;;;;;;;15.35;64.23;100505.44;5134365;27;20054;-68
2021/10/05 07:05:16;;;;;;;14.65;9.73;;;;;;;15.30;63.55;100502.22;5132822;27;20078;-69
2021/10/05 07:07:47;;;;;;;16.58;9.35;;;;;;;15.37;62.54;100500.78;5133697;27;20091;-70
2021/10/05 07:10:17;;;;;;;15.50;9.80;;;;;;;15.45;61.68;100506.44;5133742;27;20407;-70
2021/10/05 07:12:45;;;;;;;16.05;8.90;;;;;;;15.44;61.45;100499.38;5132591;27;20051;-70
2021/10/05 07:15:16;;;;;;;16.27;9.05;;;;;;;15.46;61.94;100504.63;5133374;27;20049;-70
2021/10/05 07:17:45;;;;;;;16.58;9.15;;;;;;;15.56;61.11;100499.38;5133359;27;20050;-69
2021/10/05 07:20:25;;;;;;;17.90;8.43;;;;;;;15.50;61.81;100486.41;5133396;27;20066;-69
2021/10/05 07:22:56;;;;;;;14.70;8.60;;;;;;;15.69;60.81;100481.34;5132869;27;20465;-69
2021/10/05 07:25:26;;;;;;;17.08;9.10;;;;;;;15.71;60.32;100490.16;5132631;27;20122;-69
2021/10/05 07:27:55;;;;;;;13.10;8.73;;;;;;;15.70;60.40;100492.00;5132593;27;20114;-69
2021/10/05 07:30:25;;;;;;;15.07;9.18;;;;;;;15.73;60.31;100493.59;5132640;28;20380;-69
2021/10/05 07:32:55;;;;;;;14.73;8.60;;;;;;;15.77;59.94;100494.22;5133381;28;20044;-69
2021/10/05 07:35:25;;;;;;;14.73;9.07;;;;;;;15.74;60.82;100490.78;5132209;27;20058;-70
2021/10/05 07:37:54;;;;;;;16.00;9.23;;;;;;;15.76;61.46;100487.97;5133180;27;20653;-70
2021/10/05 07:40:23;;;;;;;18.40;9.40;;;;;;;15.97;59.99;100491.66;5133326;28;20092;-69
2021/10/05 07:42:53;;;;;;;16.85;9.10;;;;;;;16.02;59.29;100478.72;5133267;27;20040;-69
2021/10/05 07:45:23;;;;;;;20.13;8.45;;;;;;;16.07;59.78;100469.41;5134010;27;20476;-69
2021/10/05 07:47:53;;;;;;;16.17;9.05;;;;;;;15.99;59.40;100470.88;5133777;27;20383;-69
2021/10/05 07:50:22;;;;;;;17.75;9.60;;;;;;;16.04;59.70;100470.53;5133865;28;20469;-70
2021/10/05 07:52:51;;;;;;;16.60;9.35;;;;;;;16.15;59.51;100480.44;5133485;28;20095;-70
2021/10/05 07:55:21;;;;;;;20.05;9.25;;;;;;;16.28;59.30;100468.53;5133745;27;20104;-70
2021/10/05 07:57:50;;;;;;;19.73;9.60;;;;;;;16.30;59.33;100466.59;5133453;27;20047;-70
2021/10/05 08:00:18;;;;;;;14.18;8.98;;;;;;;16.31;59.48;100471.00;5133070;27;20468;-70
2021/10/05 08:02:46;;;;;;;14.52;8.68;;;;;;;16.30;59.42;100466.59;5133489;28;20125;-70
2021/10/05 08:05:16;;;;;;;13.55;8.93;;;;;;;16.33;59.58;100465.50;5133005;28;20051;-70
2021/10/05 08:07:47;;;;;;;17.48;9.30;;;;;;;16.42;58.67;100469.28;5133495;28;20043;-70
2021/10/05 08:10:15;;;;;;;15.38;9.10;;;;;;;16.51;58.63;100465.84;5133277;27;20142;-70
2021/10/05 08:12:43;;;;;;;17.48;10.02;;;;;;;16.48;58.92;100475.00;5133444;28;20119;-70
2021/10/05 08:15:11;;;;;;;16.83;9.45;;;;;;;16.46;59.15;100473.44;5133067;28;20040;-70
2021/10/05 08:17:40;;;;;;;18.08;9.73;;;;;;;16.49;59.34;100471.34;5132085;27;20055;-69
2021/10/05 08:20:10;;;;;;;14.50;9.05;;;;;;;16.59;58.57;100469.59;5133134;27;20031;-69
2021/10/05 08:22:40;;;;;;;17.08;9.20;;;;;;;16.53;59.34;100470.13;5133330;28;20039;-69
2021/10/05 08:25:09;;;;;;;16.58;8.88;;;;;;;16.60;59.10;100465.94;5135455;27;20505;-69
2021/10/05 08:27:39;;;;;;;18.75;9.60;;;;;;;16.63;59.43;100478.31;5136939;27;20403;-69
2021/10/05 08:30:08;;;;;;;16.02;8.98;;;;;;;16.68;58.87;100483.28;5136242;27;20103;-69
2021/10/05 08:32:37;;;;;;;16.60;9.63;;;;;;;16.63;59.29;100488.22;5095890;28;20122;-69
2021/10/05 08:35:05;;;;;;;15.95;9.23;;;;;;;16.65;59.42;100488.94;5093843;28;20048;-69
2021/10/05 08:37:34;;;;;;;15.60;9.35;;;;;;;16.77;58.86;100487.97;5095656;28;20044;-69
2021/10/05 08:40:06;;;;;;;14.55;9.60;;;;;;;16.79;59.13;100472.53;5095138;28;20036;-69
2021/10/05 08:42:35;;;;;;;14.45;8.98;;;;;;;16.88;58.44;100467.22;5094081;28;20071;-69
2021/10/05 08:45:05;;;;;;;15.57;9.07;;;;;;;16.96;58.83;100463.91;5094484;28;20047;-69
2021/10/05 08:47:34;;;;;;;16.58;9.27;;;;;;;16.91;59.22;100463.44;5094779;28;20047;-69
2021/10/05 08:50:02;;;;;;;17.25;8.88;;;;;;;17.04;59.22;100447.09;5094847;28;20101;-69
2021/10/05 08:52:33;;;;;;;16.17;8.95;;;;;;;17.22;57.56;100445.56;5094298;28;20123;-71
2021/10/05 08:55:03;;;;;;;14.93;8.95;;;;;;;17.24;58.22;100451.66;5094201;28;20388;-69
2021/10/05 08:57:32;;;;;;;18.67;8.80;;;;;;;17.33;57.90;100439.25;5093856;28;20036;-69
2021/10/05 09:00:04;;;;;;;17.55;8.98;;;;;;;17.46;57.69;100439.91;5093810;28;20145;-70
2021/10/05 09:02:52;;;;;;;15.48;8.50;;;;;;;17.42;57.70;100446.56;5095037;28;20048;-69
2021/10/05 09:05:25;;;;;;;15.68;8.80;;;;;;;17.51;57.58;100448.47;5094733;28;20046;-69
2021/10/05 09:07:56;;;;;;;15.93;8.02;;;;;;;17.63;57.12;100433.91;5093608;28;20044;-69
2021/10/05 09:10:33;;;;;;;13.07;7.60;;;;;;;17.67;57.70;100429.97;5094914;28;20055;-68
2021/10/05 09:13:01;;;;;;;19.95;8.07;;;;;;;17.77;57.32;100421.09;5095109;28;20044;-71
2021/10/05 09:15:32;;;;;;;13.73;9.07;;;;;;;17.83;56.97;100425.94;5094960;28;20127;-70
2021/10/05 09:18:01;;;;;;;13.65;7.97;;;;;;;17.99;56.00;100442.50;5093613;28;20051;-69
2021/10/05 09:20:31;;;;;;;14.10;8.80;;;;;;;18.09;55.42;100437.16;5094675;28;20503;-70
2021/10/05 09:23:04;;;;;;;14.27;8.45;;;;;;;18.22;55.39;100437.75;5094853;28;20047;-75
2021/10/05 09:25:36;;;;;;;19.15;8.30;;;;;;;18.33;54.42;100434.09;5095017;28;20044;-70
2021/10/05 09:28:15;;;;;;;15.32;7.93;;;;;;;18.33;54.39;100432.25;5094395;28;20048;-71
2021/10/05 09:30:43;;;;;;;20.13;7.70;;;;;;;18.38;54.54;100430.00;5103984;27;20061;-71
2021/10/05 09:33:11;;;;;;;14.77;7.45;;;;;;;18.34;55.01;100419.63;5135537;27;20408;-70
2021/10/05 09:35:42;;;;;;;14.48;7.78;;;;;;;18.58;53.18;100406.59;5135818;27;20109;-71
2021/10/05 09:38:12;;;;;;;14.25;7.93;;;;;;;18.78;52.37;100402.94;5135267;27;20438;-70
2021/10/05 09:40:41;;;;;;;14.13;7.75;;;;;;;18.85;52.81;100414.06;5135383;27;20045;-70
2021/10/05 09:43:21;;;;;;;12.20;7.53;;;;;;;18.91;52.49;100409.91;5135319;27;20043;-71
2021/10/05 09:45:50;;;;;;;12.15;7.00;;;;;;;18.98;52.39;100402.94;5135535;27;20100;-71
2021/10/05 09:48:19;;;;;;;11.10;7.25;;;;;;;19.15;51.15;100400.38;5135299;27;20039;-71
2021/10/05 09:50:47;;;;;;;12.75;6.97;;;;;;;19.20;51.89;100413.47;5135445;27;20043;-70
2021/10/05 09:53:18;;;;;;;12.27;7.28;;;;;;;19.38;50.57;100400.06;5134997;27;20047;-71
2021/10/05 09:55:48;;;;;;;12.85;7.45;;;;;;;19.44;50.09;100402.19;5135040;27;20057;-70
2021/10/05 09:58:16;;;;;;;15.25;7.22;;;;;;;19.38;50.93;100402.75;5134704;27;20043;-71
2021/10/05 10:00:47;;;;;;;13.32;7.40;;;;;;;19.52;50.31;100401.47;5134959;27;20050;-70
2021/10/05 10:03:16;;;;;;;12.93;6.78;;;;;;;19.63;50.02;100393.22;5135127;27;20046;-71
2021/10/05 10:05:46;;;;;;;12.10;6.97;;;;;;;19.59;50.24;100403.50;5135285;27;20043;-68
2021/10/05 10:08:16;;;;;;;11.50;7.30;;;;;;;19.72;49.29;100411.28;5134706;27;20509;-69
2021/10/05 10:10:44;;;;;;;12.73;6.72;;;;;;;19.78;48.76;100407.09;5134808;27;20046;-69
2021/10/05 10:13:14;;;;;;;14.18;7.22;;;;;;;19.80;48.96;100414.09;5134825;27;20066;-70
2021/10/05 10:15:43;;;;;;;20.10;7.53;;;;;;;19.88;49.01;100411.50;5134997;27;20043;-71
2021/10/05 10:18:14;;;;;;;13.63;6.90;;;;;;;19.82;49.19;100400.41;5134382;27;20039;-71
2021/10/05 10:20:50;;;;;;;14.60;7.13;;;;;;;19.84;49.27;100398.41;5134087;27;20039;-71
2021/10/05 10:23:21;;;;;;;11.70;6.80;;;;;;;20.00;48.39;100388.66;5132244;27;20043;-70
2021/10/05 10:25:54;;;;;;;12.13;7.10;;;;;;;20.17;47.98;100396.97;5133281;27;20043;-71
2021/10/05 10:28:30;;;;;;;14.65;6.80;;;;;;;20.28;47.48;100394.94;5132997;27;20035;-70
2021/10/05 10:31:00;;;;;;;10.40;6.72;;;;;;;20.32;47.50;100386.50;5133916;27;20050;-69
2021/10/05 10:33:42;;;;;;;10.60;6.95;;;;;;;20.29;47.23;100384.94;5134066;27;20043;-69
2021/10/05 10:36:17;;;;;;;15.07;6.88;;;;;;;20.25;47.91;100384.38;5133730;27;20047;-71
2021/10/05 10:38:46;;;;;;;15.65;6.63;;;;;;;20.32;47.37;100368.38;5133990;27;20156;-69
2021/10/05 10:41:17;;;;;;;14.65;6.82;;;;;;;20.40;47.18;100371.19;5133827;27;20110;-70
2021/10/05 10:43:54;;;;;;;14.60;7.03;;;;;;;20.45;47.49;100385.16;5133623;27;20047;-70
2021/10/05 10:46:24;;;;;;;11.88;6.45;;;;;;;20.51;47.45;100379.13;5133395;27;20039;-70
2021/10/05 10:48:54;;;;;;;13.95;6.80;;;;;;;20.63;47.24;100370.78;5133935;27;20039;-70
2021/10/05 10:51:27;;;;;;;13.40;6.43;;;;;;;20.61;47.87;100361.94;5134212;27;20152;-70
2021/10/05 10:53:56;;;;;;;13.53;6.70;;;;;;;20.74;46.66;100362.41;5134231;27;20064;-70
2021/10/05 10:56:29;;;;;;;12.30;6.65;;;;;;;20.84;46.15;100357.75;5133801;27;20471;-70
2021/10/05 10:59:04;;;;;;;13.32;6.50;;;;;;;20.90;45.83;100357.13;5134019;27;20137;-70
2021/10/05 11:01:48;;;;;;;11.35;6.18;;;;;;;20.90;46.24;100359.84;5134373;27;20039;-70
2021/10/05 11:04:18;;;;;;;10.15;5.97;;;;;;;20.98;46.51;100368.06;5134028;27;20400;-70
2021/10/05 11:06:47;;;;;;;12.85;6.30;;;;;;;21.01;46.91;100356.88;5134119;27;20054;-70
2021/10/05 11:09:17;;;;;;;11.63;6.43;;;;;;;21.00;45.85;100347.06;5133857;27;20091;-70
2021/10/05 11:11:48;;;;;;;13.57;6.35;;;;;;;20.96;45.67;100340.25;5134255;27;20043;-70
2021/10/05 11:14:21;;;;;;;12.65;6.05;;;;;;;21.18;44.88;100344.31;5134068;27;20433;-70
2021/10/05 11:16:54;;;;;;;14.90;6.20;;;;;;;21.26;44.65;100336.28;5134287;27;20039;-70
2021/10/05 11:19:28;;;;;;;12.05;5.90;;;;;;;21.29;43.91;100337.81;5133805;27;20043;-70
2021/10/05 11:21:57;;;;;;;10.05;5.75;;;;;;;21.29;44.28;100340.53;5134238;27;20043;-70
2021/10/05 11:24:36;;;;;;;14.98;6.50;;;;;;;21.19;44.73;100339.75;5133804;27;20400;-70
2021/10/05 11:27:10;;;;;;;14.48;5.95;;;;;;;21.22;44.80;100328.56;5134225;27;20438;-70